createdAt,value
2019-04-10T00:01:12.187Z,86.80
2019-04-10T00:03:42.495Z,86.90
2019-04-10T00:06:10.567Z,87.00
2019-04-10T00:08:38.977Z,87.40
2019-04-10T00:11:08.165Z,87.40
2019-04-10T00:13:36.658Z,87.80
2019-04-10T00:16:05.614Z,88.10
2019-04-10T00:18:34.220Z,88.50
2019-04-10T00:21:02.613Z,88.60
2019-04-10T00:23:31.166Z,88.90
2019-04-10T00:25:59.501Z,88.90
2019-04-10T00:28:27.900Z,89.10
2019-04-10T00:30:56.276Z,89.20
2019-04-10T00:33:24.929Z,89.70
2019-04-10T00:35:54.002Z,89.50
2019-04-10T00:38:22.548Z,89.80
2019-04-10T00:40:51.935Z,90.00
2019-04-10T00:43:20.316Z,90.10
2019-04-10T00:45:49.416Z,90.10
2019-04-10T00:48:17.991Z,90.20
2019-04-10T00:50:46.624Z,90.00
2019-04-10T00:53:14.940Z,89.70
2019-04-10T00:55:44.026Z,90.00
2019-04-10T00:58:12.616Z,90.10
2019-04-10T01:00:41.223Z,89.60
2019-04-10T01:03:11.392Z,88.90
2019-04-10T01:05:39.805Z,88.40
2019-04-10T01:08:08.698Z,88.50
2019-04-10T01:10:37.186Z,88.70
2019-04-10T01:13:05.568Z,88.90
2019-04-10T01:15:34.467Z,88.80
2019-04-10T01:18:02.836Z,89.40
2019-04-10T01:20:31.349Z,89.40
2019-04-10T01:22:59.706Z,89.70
2019-04-10T01:25:28.106Z,89.20
2019-04-10T01:27:56.654Z,90.00
2019-04-10T01:30:25.051Z,89.70
2019-04-10T01:32:54.364Z,90.40
2019-04-10T01:35:22.844Z,90.00
2019-04-10T01:37:56.236Z,89.40
2019-04-10T01:40:21.766Z,89.20
2019-04-10T01:43:02.734Z,89.50
2019-04-10T01:45:20.133Z,89.30
2019-04-10T01:47:48.503Z,89.20
2019-04-10T01:50:17.941Z,89.20
2019-04-10T01:52:47.133Z,89.20
2019-04-10T01:55:23.069Z,89.40
2019-04-10T01:57:46.343Z,89.30
2019-04-10T02:00:16.507Z,89.90
2019-04-10T02:02:49.617Z,89.50
2019-04-10T02:05:18.746Z,89.10
2019-04-10T02:07:59.645Z,89.20
2019-04-10T02:10:18.455Z,88.80
2019-04-10T02:12:47.257Z,88.80
2019-04-10T02:15:15.927Z,88.60
2019-04-10T02:17:44.558Z,88.00
2019-04-10T02:20:12.947Z,87.60
2019-04-10T02:22:41.348Z,87.90
2019-04-10T02:25:10.291Z,87.70
2019-04-10T02:27:38.731Z,87.70
2019-04-10T02:30:10.365Z,87.80
2019-04-10T02:32:39.460Z,88.10
2019-04-10T02:35:13.198Z,88.50
2019-04-10T02:37:39.577Z,87.50
2019-04-10T02:40:09.846Z,87.40
2019-04-10T02:42:38.717Z,87.70
2019-04-10T02:45:08.493Z,88.50
2019-04-10T02:47:38.818Z,88.10
2019-04-10T02:50:08.354Z,88.00
2019-04-10T02:52:40.173Z,87.80
2019-04-10T02:55:09.311Z,87.60
2019-04-10T02:57:39.020Z,87.40
2019-04-10T03:00:08.465Z,87.00
2019-04-10T03:02:38.786Z,87.10
2019-04-10T03:05:07.235Z,86.80
2019-04-10T03:07:35.931Z,87.40
2019-04-10T03:10:17.589Z,87.20
2019-04-10T03:12:36.504Z,88.10
2019-04-10T03:15:07.871Z,88.00
2019-04-10T03:17:36.689Z,88.00
2019-04-10T03:20:06.179Z,87.90
2019-04-10T03:22:34.722Z,87.30
2019-04-10T03:25:03.044Z,87.50
2019-04-10T03:27:31.439Z,87.80
2019-04-10T03:30:00.203Z,88.20
2019-04-10T03:32:35.371Z,88.40
2019-04-10T03:35:02.852Z,88.40
2019-04-10T03:37:31.968Z,88.10
2019-04-10T03:40:00.378Z,88.40
2019-04-10T03:42:28.778Z,88.30
2019-04-10T03:44:57.159Z,88.30
2019-04-10T03:47:25.587Z,88.00
2019-04-10T03:49:54.073Z,88.10
2019-04-10T03:52:22.459Z,88.10
2019-04-10T03:54:50.831Z,87.90
2019-04-10T03:57:19.231Z,88.20
2019-04-10T03:59:47.669Z,88.00
2019-04-10T04:02:16.011Z,88.30
2019-04-10T04:04:44.469Z,88.90
2019-04-10T04:07:13.396Z,88.90
2019-04-10T04:09:41.959Z,88.90
2019-04-10T04:12:10.546Z,88.50
2019-04-10T04:14:39.459Z,88.40
2019-04-10T04:17:08.091Z,88.50
2019-04-10T04:19:37.892Z,88.70
2019-04-10T04:22:06.399Z,89.00
2019-04-10T04:24:35.749Z,88.70
2019-04-10T04:27:04.832Z,88.90
2019-04-10T04:29:34.423Z,89.00
2019-04-10T04:32:02.874Z,89.00
2019-04-10T04:34:31.360Z,88.50
2019-04-10T04:37:00.369Z,89.10
2019-04-10T04:39:30.031Z,89.50
2019-04-10T04:41:58.845Z,89.20
2019-04-10T04:44:27.302Z,89.30
2019-04-10T04:46:55.640Z,89.10
2019-04-10T04:49:24.332Z,88.60
2019-04-10T04:51:52.714Z,88.70
2019-04-10T04:54:21.349Z,88.60
2019-04-10T04:56:50.455Z,88.80
2019-04-10T04:59:19.011Z,89.20
2019-04-10T05:01:47.435Z,89.10
2019-04-10T05:04:15.829Z,89.30
2019-04-10T05:06:44.239Z,89.20
2019-04-10T05:09:17.057Z,89.30
2019-04-10T05:11:43.279Z,89.60
2019-04-10T05:14:11.631Z,89.50
2019-04-10T05:16:40.058Z,89.20
2019-04-10T05:19:08.553Z,89.00
2019-04-10T05:21:37.259Z,89.00
2019-04-10T05:24:05.770Z,90.00
2019-04-10T05:26:34.352Z,88.90
2019-04-10T05:29:02.850Z,88.50
2019-04-10T05:31:32.198Z,88.50
2019-04-10T05:34:00.909Z,88.70
2019-04-10T05:36:29.367Z,88.70
2019-04-10T05:38:57.842Z,88.70
2019-04-10T05:41:26.219Z,88.70
2019-04-10T05:43:55.061Z,88.80
2019-04-10T05:46:24.869Z,88.40
2019-04-10T05:48:53.598Z,87.90
2019-04-10T05:51:23.251Z,88.20
2019-04-10T05:53:53.910Z,88.00
2019-04-10T05:56:22.518Z,88.10
2019-04-10T05:58:51.145Z,88.10
2019-04-10T06:01:31.356Z,88.10
2019-04-10T06:03:49.860Z,88.10
2019-04-10T06:06:18.391Z,87.70
2019-04-10T06:08:47.072Z,86.50
2019-04-10T06:11:15.604Z,86.30
2019-04-10T06:13:45.074Z,86.60
2019-04-10T06:16:13.581Z,87.30
2019-04-10T06:18:43.063Z,87.50
2019-04-10T06:21:12.478Z,86.90
2019-04-10T06:23:41.377Z,86.50
2019-04-10T06:26:10.212Z,85.50
2019-04-10T06:28:38.699Z,84.60
2019-04-10T06:31:08.093Z,84.80
2019-04-10T06:33:36.710Z,84.90
2019-04-10T06:36:05.104Z,84.00
2019-04-10T06:38:33.524Z,83.50
2019-04-10T06:41:02.224Z,83.40
2019-04-10T06:43:30.909Z,84.60
2019-04-10T06:45:59.982Z,85.00
2019-04-10T06:48:28.554Z,84.80
2019-04-10T06:50:56.946Z,84.20
2019-04-10T06:53:25.371Z,84.00
2019-04-10T06:55:54.432Z,83.40
2019-04-10T06:58:23.669Z,84.30
2019-04-10T07:00:54.575Z,84.10
2019-04-10T07:03:23.131Z,83.80
2019-04-10T07:06:02.466Z,83.30
2019-04-10T07:08:24.410Z,83.30
2019-04-10T07:11:01.372Z,82.60
2019-04-10T07:13:23.889Z,82.80
2019-04-10T07:15:57.136Z,81.70
2019-04-10T07:18:22.515Z,80.90
2019-04-10T07:20:50.905Z,81.70
2019-04-10T07:23:25.840Z,82.50
2019-04-10T07:25:49.938Z,81.60
2019-04-10T07:28:19.423Z,81.50
2019-04-10T07:30:47.879Z,80.20
2019-04-10T07:33:18.088Z,81.50
2019-04-10T07:35:46.476Z,81.30
2019-04-10T07:38:15.909Z,79.90
2019-04-10T07:40:44.980Z,80.70
2019-04-10T07:43:13.502Z,81.50
2019-04-10T07:45:41.998Z,80.30
2019-04-10T07:48:10.712Z,80.40
2019-04-10T07:50:39.200Z,80.00
2019-04-10T07:53:08.369Z,79.80
2019-04-10T07:55:37.419Z,79.70
2019-04-10T07:58:06.862Z,79.40
2019-04-10T08:00:35.234Z,80.20
2019-04-10T08:03:04.205Z,80.10
2019-04-10T08:05:33.290Z,79.20
2019-04-10T08:08:02.926Z,78.80
2019-04-10T08:10:32.627Z,79.60
2019-04-10T08:13:02.271Z,79.00
2019-04-10T08:15:31.567Z,79.30
2019-04-10T08:18:00.372Z,78.80
2019-04-10T08:20:29.211Z,79.70
2019-04-10T08:22:57.626Z,79.40
2019-04-10T08:25:26.957Z,79.00
2019-04-10T08:27:56.362Z,79.60
2019-04-10T08:30:25.841Z,80.30
2019-04-10T08:33:00.764Z,80.00
2019-04-10T08:35:25.084Z,78.60
2019-04-10T08:37:53.569Z,79.20
2019-04-10T08:40:23.145Z,78.00
2019-04-10T08:42:51.750Z,78.30
2019-04-10T08:45:21.004Z,78.20
2019-04-10T08:47:50.709Z,78.00
2019-04-10T08:50:19.706Z,77.80
2019-04-10T08:52:48.713Z,76.80
2019-04-10T08:55:17.726Z,77.40
2019-04-10T08:57:46.261Z,75.20
2019-04-10T09:00:14.700Z,76.50
2019-04-10T09:02:44.379Z,75.90
2019-04-10T09:05:13.316Z,75.40
2019-04-10T09:07:41.673Z,75.70
2019-04-10T09:10:10.278Z,75.20
2019-04-10T09:12:38.962Z,73.60
2019-04-10T09:15:07.808Z,74.30
2019-04-10T09:17:37.519Z,74.00
2019-04-10T09:20:06.916Z,73.40
2019-04-10T09:22:56.285Z,72.70
2019-04-10T09:25:06.967Z,74.00
2019-04-10T09:27:35.935Z,74.60
2019-04-10T09:30:06.726Z,73.80
2019-04-10T09:32:35.246Z,71.00
2019-04-10T09:35:04.679Z,70.20
2019-04-10T09:37:33.125Z,72.10
2019-04-10T09:40:01.547Z,71.00
2019-04-10T09:42:31.055Z,73.30
2019-04-10T09:45:00.429Z,70.30
2019-04-10T09:47:28.821Z,72.20
2019-04-10T09:49:57.700Z,72.50
2019-04-10T09:52:26.053Z,71.70
2019-04-10T09:54:55.274Z,72.30
2019-04-10T09:57:24.562Z,69.90
2019-04-10T09:59:53.081Z,71.50
2019-04-10T10:02:21.481Z,70.30
2019-04-10T10:04:50.423Z,71.80
2019-04-10T10:07:19.107Z,70.70
2019-04-10T10:09:47.535Z,70.50
2019-04-10T10:12:15.940Z,70.90
2019-04-10T10:14:44.430Z,70.60
2019-04-10T10:17:12.841Z,71.10
2019-04-10T10:19:42.518Z,70.20
2019-04-10T10:22:11.125Z,67.50
2019-04-10T10:24:40.457Z,67.50
2019-04-10T10:27:09.467Z,67.90
2019-04-10T10:29:37.918Z,66.20
2019-04-10T10:32:06.363Z,65.60
2019-04-10T10:34:34.854Z,64.50
2019-04-10T10:37:03.936Z,65.10
2019-04-10T10:39:32.443Z,64.90
2019-04-10T10:42:00.856Z,63.30
2019-04-10T10:44:30.122Z,62.40
2019-04-10T10:46:58.562Z,64.10
2019-04-10T10:49:26.960Z,62.30
2019-04-10T10:51:55.448Z,63.10
2019-04-10T10:54:25.029Z,64.50
2019-04-10T10:56:55.039Z,64.40
2019-04-10T10:59:23.426Z,63.80
2019-04-10T11:01:51.978Z,65.40
2019-04-10T11:04:21.078Z,65.00
2019-04-10T11:06:57.693Z,62.60
2019-04-10T11:09:21.171Z,61.70
2019-04-10T11:11:49.553Z,61.20
2019-04-10T11:14:19.072Z,61.80
2019-04-10T11:16:47.537Z,60.70
2019-04-10T11:19:17.151Z,60.30
2019-04-10T11:21:46.993Z,59.50
2019-04-10T11:24:15.505Z,58.90
2019-04-10T11:26:44.091Z,58.50
2019-04-10T11:29:14.217Z,58.50
2019-04-10T11:31:42.558Z,59.00
2019-04-10T11:34:11.282Z,58.80
2019-04-10T11:36:40.156Z,58.90
2019-04-10T11:39:18.641Z,60.00
2019-04-10T11:41:39.824Z,59.60
2019-04-10T11:44:09.858Z,59.40
2019-04-10T11:46:41.855Z,58.60
2019-04-10T11:49:12.919Z,59.80
2019-04-10T11:51:39.055Z,59.50
2019-04-10T11:54:11.014Z,59.40
2019-04-10T11:56:38.445Z,57.50
2019-04-10T11:59:09.164Z,57.60
2019-04-10T12:01:38.662Z,58.60
2019-04-10T12:04:10.087Z,58.00
2019-04-10T12:06:38.230Z,58.10
2019-04-10T12:11:39.317Z,58.20
2019-04-10T12:14:07.729Z,59.00
2019-04-10T12:16:36.879Z,58.60
2019-04-10T12:19:05.243Z,59.40
2019-04-10T12:21:33.753Z,58.50
2019-04-10T12:24:02.165Z,58.50
2019-04-10T12:26:30.531Z,58.90
2019-04-10T12:28:58.925Z,59.20
2019-04-10T12:31:28.119Z,59.30
2019-04-10T12:33:56.984Z,59.80
2019-04-10T12:36:25.409Z,59.50
2019-04-10T12:38:54.105Z,59.10
2019-04-10T12:41:23.503Z,59.60
2019-04-10T12:43:51.940Z,58.40
2019-04-10T12:46:21.101Z,57.90
2019-04-10T12:48:50.624Z,57.70
2019-04-10T12:51:19.376Z,58.10
2019-04-10T12:53:47.804Z,59.10
2019-04-10T12:56:16.211Z,57.40
2019-04-10T12:58:44.738Z,58.60
2019-04-10T13:01:14.249Z,57.40
2019-04-10T13:03:43.167Z,57.10
2019-04-10T13:06:11.578Z,56.50
2019-04-10T13:08:55.720Z,56.60
2019-04-10T13:11:10.122Z,56.90
2019-04-10T13:13:38.672Z,56.50
2019-04-10T13:16:07.797Z,56.30
2019-04-10T13:18:36.452Z,55.60
2019-04-10T13:21:04.871Z,56.60
2019-04-10T13:23:33.252Z,55.80
2019-04-10T13:26:03.777Z,55.40
2019-04-10T13:28:31.780Z,55.30
2019-04-10T13:31:35.194Z,55.20
2019-04-10T13:34:04.837Z,55.50
2019-04-10T13:36:53.539Z,56.00
2019-04-10T13:39:22.436Z,56.30
2019-04-10T13:41:50.878Z,57.10
2019-04-10T13:44:19.282Z,55.70
2019-04-10T13:46:47.729Z,55.60
2019-04-10T13:49:16.067Z,54.70
2019-04-10T13:51:45.590Z,55.40
2019-04-10T13:54:16.050Z,55.50
2019-04-10T13:56:45.385Z,55.30
2019-04-10T13:59:15.273Z,55.60
2019-04-10T14:01:43.988Z,55.80
2019-04-10T14:04:12.356Z,55.10
2019-04-10T14:06:41.437Z,54.60
2019-04-10T14:09:28.860Z,54.50
2019-04-10T14:11:43.682Z,54.80
2019-04-10T14:14:12.658Z,54.40
2019-04-10T14:16:41.218Z,55.10
2019-04-10T14:19:09.660Z,53.90
2019-04-10T14:21:38.019Z,54.00
2019-04-10T14:24:07.296Z,54.40
2019-04-10T14:26:48.894Z,53.80
2019-04-10T14:29:14.744Z,54.20
2019-04-10T14:31:47.639Z,53.60
2019-04-10T14:34:18.432Z,53.80
2019-04-10T14:36:46.363Z,54.30
2019-04-10T14:39:18.466Z,53.00
2019-04-10T14:41:46.161Z,53.00
2019-04-10T14:44:14.693Z,53.20
2019-04-10T14:46:44.154Z,53.00
2019-04-10T14:49:13.188Z,52.60
2019-04-10T14:51:41.625Z,53.30
2019-04-10T14:54:11.278Z,52.50
2019-04-10T14:56:40.033Z,52.70
2019-04-10T14:59:09.286Z,52.00
2019-04-10T15:01:38.183Z,53.20
2019-04-10T15:04:06.752Z,51.90
2019-04-10T15:06:35.083Z,51.90
2019-04-10T15:09:06.136Z,51.50
2019-04-10T15:11:34.961Z,52.80
2019-04-10T15:14:03.457Z,52.30
2019-04-10T15:16:31.803Z,53.10
2019-04-10T15:19:00.365Z,51.90
2019-04-10T15:21:29.158Z,51.70
2019-04-10T15:23:57.572Z,52.00
2019-04-10T15:26:26.281Z,52.40
2019-04-10T15:28:54.642Z,52.00
2019-04-10T15:31:26.057Z,52.10
2019-04-10T15:33:53.828Z,51.80
2019-04-10T15:36:22.260Z,51.30
2019-04-10T15:38:50.664Z,51.50
2019-04-10T15:41:19.075Z,51.30
2019-04-10T15:43:47.676Z,50.80
2019-04-10T15:46:17.137Z,50.60
2019-04-10T15:48:46.077Z,50.20
2019-04-10T15:51:14.648Z,50.70
2019-04-10T15:53:43.211Z,51.10
2019-04-10T15:56:11.793Z,51.30
2019-04-10T15:58:40.168Z,51.80
2019-04-10T16:01:10.195Z,52.10
2019-04-10T16:03:40.575Z,52.30
2019-04-10T16:06:09.208Z,52.10
2019-04-10T16:08:38.507Z,52.90
2019-04-10T16:11:09.741Z,51.00
2019-04-10T16:13:40.888Z,52.50
2019-04-10T16:16:27.602Z,52.10
2019-04-10T16:18:57.740Z,52.20
2019-04-10T16:21:26.936Z,51.60
2019-04-10T16:24:00.503Z,51.60
2019-04-10T16:26:29.350Z,51.40
2019-04-10T16:28:57.822Z,52.10
2019-04-10T16:31:26.217Z,51.40
2019-04-10T16:33:54.693Z,52.20
2019-04-10T16:36:23.473Z,52.70
2019-04-10T16:38:53.171Z,53.00
2019-04-10T16:41:21.600Z,52.60
2019-04-10T16:43:50.754Z,52.70
2019-04-10T16:46:20.331Z,52.70
2019-04-10T16:48:48.801Z,53.80
2019-04-10T16:51:18.358Z,53.30
2019-04-10T16:53:47.994Z,54.60
2019-04-10T16:56:17.602Z,54.20
2019-04-10T16:58:46.182Z,54.30
2019-04-10T17:01:14.702Z,54.90
2019-04-10T17:03:44.134Z,54.80
2019-04-10T17:06:12.635Z,54.50
2019-04-10T17:08:41.053Z,53.70
2019-04-10T17:11:09.996Z,54.00
2019-04-10T17:13:38.638Z,54.80
2019-04-10T17:16:07.313Z,55.00
2019-04-10T17:18:36.010Z,56.10
2019-04-10T17:21:04.779Z,56.30
2019-04-10T17:23:34.351Z,56.40
2019-04-10T17:26:04.489Z,56.40
2019-04-10T17:28:32.872Z,56.50
2019-04-10T17:31:02.352Z,57.10
2019-04-10T17:33:32.146Z,57.50
2019-04-10T17:36:00.724Z,57.20
2019-04-10T17:38:29.099Z,57.50
2019-04-10T17:41:00.318Z,57.80
2019-04-10T17:43:28.605Z,57.70
2019-04-10T17:45:58.643Z,57.40
2019-04-10T17:48:28.303Z,57.40
2019-04-10T17:50:57.524Z,57.80
2019-04-10T17:53:26.146Z,57.80
2019-04-10T17:55:55.817Z,58.30
2019-04-10T17:58:25.325Z,58.20
2019-04-10T18:00:59.655Z,58.50
2019-04-10T18:03:41.474Z,59.00
2019-04-10T18:05:59.304Z,58.60
2019-04-10T18:08:29.721Z,58.80
2019-04-10T18:10:58.726Z,58.60
2019-04-10T18:13:27.319Z,58.50
2019-04-10T18:15:56.942Z,58.60
2019-04-10T18:18:25.599Z,59.30
2019-04-10T18:20:53.995Z,59.80
2019-04-10T18:23:23.075Z,59.80
2019-04-10T18:25:51.897Z,59.70
2019-04-10T18:28:21.354Z,60.10
2019-04-10T18:30:49.895Z,60.20
2019-04-10T18:33:18.340Z,60.40
2019-04-10T18:35:47.075Z,60.20
2019-04-10T18:38:15.799Z,60.50
2019-04-10T18:40:53.053Z,60.00
2019-04-10T18:43:14.323Z,60.20
2019-04-10T18:45:54.716Z,60.30
2019-04-10T18:48:14.480Z,59.80
2019-04-10T18:50:43.442Z,60.60
2019-04-10T18:53:13.079Z,60.40
2019-04-10T18:55:42.747Z,60.70
2019-04-10T18:58:15.851Z,60.20
2019-04-10T19:00:54.795Z,61.10
2019-04-10T19:03:48.871Z,60.60
2019-04-10T19:06:20.691Z,61.50
2019-04-10T19:09:01.626Z,61.20
2019-04-10T19:11:23.116Z,62.90
2019-04-10T19:13:49.225Z,63.40
2019-04-10T19:16:19.566Z,63.30
2019-04-10T19:18:48.031Z,62.00
2019-04-10T19:21:17.799Z,61.60
2019-04-10T19:23:47.781Z,61.80
2019-04-10T19:26:18.915Z,62.50
2019-04-10T19:28:48.691Z,61.80
2019-04-10T19:31:21.249Z,61.20
2019-04-10T19:33:49.114Z,60.90
2019-04-10T19:36:17.640Z,61.30
2019-04-10T19:38:46.019Z,61.30
2019-04-10T19:41:25.097Z,60.80
2019-04-10T19:43:44.444Z,60.10
2019-04-10T19:46:12.844Z,59.80
2019-04-10T19:48:41.532Z,60.80
2019-04-10T19:51:10.108Z,60.70
2019-04-10T19:53:39.437Z,60.50
2019-04-10T19:56:09.354Z,59.90
2019-04-10T19:58:38.536Z,59.90
2019-04-10T20:01:07.069Z,60.00
2019-04-10T20:03:35.511Z,60.20
2019-04-10T20:06:03.944Z,60.40
2019-04-10T20:08:33.393Z,59.60
2019-04-10T20:11:02.441Z,59.40
2019-04-10T20:13:30.899Z,59.10
2019-04-10T20:15:59.270Z,58.20
2019-04-10T20:18:28.548Z,57.20
2019-04-10T20:20:56.953Z,58.20
2019-04-10T20:23:25.342Z,57.80
2019-04-10T20:25:54.610Z,56.50
2019-04-10T20:28:23.160Z,57.10
2019-04-10T20:30:54.542Z,57.40
2019-04-10T20:33:21.575Z,56.20
2019-04-10T20:35:50.866Z,56.00
2019-04-10T20:38:19.709Z,54.90
2019-04-10T20:40:51.932Z,55.30
2019-04-10T20:43:20.588Z,56.70
2019-04-10T20:45:49.693Z,57.70
2019-04-10T20:48:18.247Z,56.70
2019-04-10T20:50:46.609Z,56.50
2019-04-10T20:53:15.875Z,54.60
2019-04-10T20:55:44.381Z,55.40
2019-04-10T20:58:13.379Z,53.80
2019-04-10T21:00:43.068Z,54.20
2019-04-10T21:03:11.727Z,54.10
2019-04-10T21:05:40.238Z,53.70
2019-04-10T21:08:09.421Z,53.40
2019-04-10T21:10:38.684Z,53.40
2019-04-10T21:13:07.131Z,53.00
2019-04-10T21:15:35.513Z,52.70
2019-04-10T21:18:04.720Z,53.40
2019-04-10T21:20:34.495Z,53.40
2019-04-10T21:23:03.465Z,52.70
2019-04-10T21:25:32.954Z,52.70
2019-04-10T21:28:02.510Z,52.60
2019-04-10T21:30:48.813Z,53.10
2019-04-10T21:33:35.176Z,52.60
2019-04-10T21:36:03.627Z,52.90
2019-04-10T21:38:32.299Z,52.60
2019-04-10T21:41:00.729Z,53.20
2019-04-10T21:43:30.213Z,52.30
2019-04-10T21:45:59.565Z,52.30
2019-04-10T21:48:28.080Z,52.40
2019-04-10T21:50:56.455Z,52.90
2019-04-10T21:53:24.849Z,51.30
2019-04-10T21:55:53.679Z,51.70
2019-04-10T21:58:22.223Z,52.50
2019-04-10T22:01:01.377Z,52.40
2019-04-10T22:03:29.987Z,52.60
2019-04-10T22:06:00.074Z,52.70
2019-04-10T22:08:45.707Z,52.40
2019-04-10T22:11:14.898Z,52.40
2019-04-10T22:13:44.213Z,52.30
2019-04-10T22:16:14.612Z,52.30
2019-04-10T22:18:42.951Z,52.30
2019-04-10T22:21:12.319Z,52.90
2019-04-10T22:23:40.748Z,52.00
2019-04-10T22:26:09.521Z,52.20
2019-04-10T22:28:37.944Z,53.00
2019-04-10T22:31:07.357Z,53.20
2019-04-10T22:33:36.357Z,53.30
2019-04-10T22:36:04.876Z,53.60
2019-04-10T22:38:33.495Z,53.40
2019-04-10T22:41:02.511Z,53.70
2019-04-10T22:43:32.080Z,54.00
2019-04-10T22:46:00.561Z,54.10
2019-04-10T22:48:28.917Z,54.40
2019-04-10T22:50:57.311Z,54.30
2019-04-10T22:53:25.710Z,54.00
2019-04-10T22:55:54.094Z,54.00
2019-04-10T22:58:22.481Z,54.20
2019-04-10T23:00:51.046Z,53.00
2019-04-10T23:03:20.220Z,53.20
2019-04-10T23:05:48.922Z,53.40
2019-04-10T23:08:17.688Z,53.70
2019-04-10T23:10:46.135Z,54.00
2019-04-10T23:13:14.512Z,54.30
2019-04-10T23:15:43.899Z,54.50
2019-04-10T23:18:13.036Z,54.00
2019-04-10T23:20:41.740Z,54.80
2019-04-10T23:23:10.663Z,54.70
2019-04-10T23:25:39.093Z,54.10
2019-04-10T23:28:07.546Z,53.90
2019-04-10T23:30:37.079Z,54.00
2019-04-10T23:33:05.933Z,53.90
2019-04-10T23:35:34.464Z,53.70
2019-04-10T23:38:03.845Z,53.60
2019-04-10T23:40:32.774Z,54.10
2019-04-10T23:43:10.729Z,53.70
2019-04-10T23:45:31.499Z,53.90
2019-04-10T23:48:00.364Z,53.80
2019-04-10T23:50:28.770Z,53.50
2019-04-10T23:52:58.258Z,53.60
2019-04-10T23:55:26.771Z,54.40
2019-04-10T23:57:55.916Z,54.30
